Terminal Aerodrome Forecast
Issued by NWS

Home | Current Version | Previous Version | Text Only | Print | Product List | Glossary On
Versions: 1 2 3 4 5 6 7 8 9 10 11 12 13 14 15 16 17 18 19 20 21 22 23 24 25 26 27 28
574
FTUS41 KPHI 240230 AAA
TAFMIV
TAF AMD
KMIV 240230Z 2403/2424 VRB03KT 1SM BR OVC002
     FM241300 VRB03KT 4SM BR OVC008
      TEMPO 2415/2417 SCT008 OVC025
     FM241700 01004KT P6SM OVC035
     FM242100 04006KT P6SM -SHRA SCT020 OVC035=

USA.gov is the U.S. government's official web portal to all federal, state and local government web resources and services.